createdAt,value
2022-10-18T00:00:41.376Z,3.47
2022-10-18T00:05:41.430Z,3.5
2022-10-18T00:10:41.384Z,3.48
2022-10-18T00:20:41.412Z,3.55
2022-10-18T00:25:41.387Z,3.41
2022-10-18T00:30:41.426Z,3.37
2022-10-18T00:35:41.425Z,3.43
2022-10-18T00:40:41.393Z,3.4
2022-10-18T00:45:41.395Z,3.65
2022-10-18T00:50:41.433Z,3.57
2022-10-18T00:55:41.398Z,3.6
2022-10-18T01:00:41.400Z,3.54
2022-10-18T01:05:41.421Z,3.42
2022-10-18T01:10:41.442Z,3.52
2022-10-18T01:15:41.440Z,3.44
2022-10-18T01:20:41.416Z,3.69
2022-10-18T01:25:41.416Z,3.37
2022-10-18T01:30:41.445Z,3.45
2022-10-18T01:35:41.412Z,3.77
2022-10-18T01:40:41.455Z,3.31
2022-10-18T01:45:41.443Z,3.14
2022-10-18T01:50:41.461Z,3.16
2022-10-18T01:55:41.429Z,3.16
2022-10-18T02:00:41.460Z,3.23
2022-10-18T02:05:41.445Z,3.3
2022-10-18T02:10:41.431Z,3.08
2022-10-18T02:20:41.434Z,3.34
2022-10-18T02:25:41.460Z,3.33
2022-10-18T02:30:41.437Z,3.49
2022-10-18T02:35:41.476Z,3.28
2022-10-18T02:40:41.482Z,3.73
2022-10-18T02:45:41.478Z,4.03
2022-10-18T02:50:41.477Z,3.71
2022-10-18T02:55:41.482Z,3.7
2022-10-18T03:00:41.500Z,3.71
2022-10-18T03:05:41.484Z,3.86
2022-10-18T03:10:41.452Z,3.83
2022-10-18T03:15:41.484Z,3.86
2022-10-18T03:20:41.485Z,3.51
2022-10-18T03:25:42.812Z,3.77
2022-10-18T03:30:41.489Z,3.73
2022-10-18T03:35:41.499Z,3.93
2022-10-18T03:40:41.471Z,3.69
2022-10-18T03:45:41.483Z,3.58
2022-10-18T03:50:41.484Z,3.46
2022-10-18T03:55:41.478Z,3.81
2022-10-18T04:00:41.478Z,3.58
2022-10-18T04:05:41.506Z,3.72
2022-10-18T04:10:41.481Z,3.62
2022-10-18T04:15:41.505Z,3.7
2022-10-18T04:20:41.578Z,4.02
2022-10-18T04:30:41.499Z,3.65
2022-10-18T04:35:41.499Z,3.45
2022-10-18T04:40:41.513Z,3.32
2022-10-18T04:45:41.502Z,3.72
2022-10-18T04:50:41.531Z,3.73
2022-10-18T04:55:41.530Z,3.44
2022-10-18T05:00:41.530Z,3.48
2022-10-18T05:05:57.064Z,3.48
2022-10-18T05:10:41.512Z,3.44
2022-10-18T05:15:41.508Z,3.46
2022-10-18T05:20:41.548Z,3.71
2022-10-18T05:25:41.550Z,3.66
2022-10-18T05:30:41.524Z,3.34
2022-10-18T05:35:41.555Z,3.31
2022-10-18T05:40:41.557Z,3.81
2022-10-18T05:45:41.562Z,3.46
2022-10-18T05:50:41.587Z,3.53
2022-10-18T05:55:41.557Z,3.85
2022-10-18T06:00:41.538Z,3.87
2022-10-18T06:05:41.540Z,4.53
2022-10-18T06:10:41.562Z,4.18
2022-10-18T06:15:41.563Z,4.27
2022-10-18T06:20:41.545Z,3.68
2022-10-18T06:25:41.542Z,3.33
2022-10-18T06:30:41.579Z,3.44
2022-10-18T06:35:41.574Z,3.64
2022-10-18T06:40:41.552Z,3.91
2022-10-18T06:45:41.589Z,3.76
2022-10-18T06:50:41.586Z,3.96
2022-10-18T06:55:41.558Z,3.7
2022-10-18T07:00:41.591Z,3.51
2022-10-18T07:05:41.583Z,3.3
2022-10-18T07:10:41.571Z,3.22
2022-10-18T07:15:41.564Z,3.14
2022-10-18T07:20:41.568Z,3.12
2022-10-18T07:25:41.580Z,3.11
2022-10-18T07:30:41.574Z,3.18
2022-10-18T07:40:41.618Z,3.71
2022-10-18T07:45:41.610Z,3.55
2022-10-18T07:50:41.620Z,3.51
2022-10-18T07:55:41.631Z,3.4
2022-10-18T08:00:41.621Z,3.48
2022-10-18T08:05:41.613Z,3.59
2022-10-18T08:10:41.590Z,3.23
2022-10-18T08:15:41.601Z,3.2
2022-10-18T08:20:41.603Z,2.87
2022-10-18T08:25:41.639Z,3.02
2022-10-18T08:30:41.612Z,3.18
2022-10-18T08:35:41.609Z,3.52
2022-10-18T08:40:41.616Z,3.31
2022-10-18T08:45:42.887Z,3.71
2022-10-18T08:50:41.650Z,3.77
2022-10-18T08:55:41.616Z,3.73
2022-10-18T09:00:41.657Z,3.73
2022-10-18T09:05:41.624Z,3.7
2022-10-18T09:10:41.662Z,3.62
2022-10-18T09:15:41.644Z,3.55
2022-10-18T09:20:41.634Z,3.57
2022-10-18T09:25:41.665Z,3.5
2022-10-18T09:30:41.638Z,3.59
2022-10-18T09:35:41.639Z,3.45
2022-10-18T09:40:41.669Z,3.72
2022-10-18T09:45:41.634Z,3.68
2022-10-18T09:50:41.643Z,3.44
2022-10-18T09:55:41.678Z,3.28
2022-10-18T10:00:41.655Z,3.29
2022-10-18T10:05:41.699Z,3.29
2022-10-18T10:10:41.656Z,3.15
2022-10-18T10:15:42.531Z,3.19
2022-10-18T10:20:41.667Z,3.02
2022-10-18T10:25:41.700Z,3.06
2022-10-18T10:30:41.700Z,3
2022-10-18T10:35:52.942Z,3.24
2022-10-18T10:40:41.709Z,3.14
2022-10-18T10:45:41.701Z,2.99
2022-10-18T10:50:41.676Z,2.98
2022-10-18T10:55:41.709Z,2.91
2022-10-18T11:00:41.692Z,2.75
2022-10-18T11:05:41.725Z,2.71
2022-10-18T11:10:41.690Z,2.77
2022-10-18T11:15:41.735Z,3.21
2022-10-18T11:20:41.925Z,3.11
2022-10-18T11:25:41.847Z,3.02
2022-10-18T11:30:41.736Z,2.84
2022-10-18T11:35:41.738Z,2.96
2022-10-18T11:40:41.728Z,2.74
2022-10-18T11:45:41.719Z,2.68
2022-10-18T11:50:41.748Z,2.7
2022-10-18T11:55:41.754Z,2.64
2022-10-18T12:00:41.721Z,2.7
2022-10-18T12:05:41.730Z,2.89
2022-10-18T12:10:52.986Z,2.62
2022-10-18T12:15:41.731Z,2.56
2022-10-18T12:20:41.727Z,2.96
2022-10-18T12:25:41.731Z,2.93
2022-10-18T12:30:41.776Z,2.87
2022-10-18T12:35:41.760Z,2.61
2022-10-18T12:40:41.747Z,2.65
2022-10-18T12:45:41.811Z,2.98
2022-10-18T12:50:41.756Z,2.71
2022-10-18T13:00:41.769Z,2.57
2022-10-18T13:05:52.707Z,3.04
2022-10-18T13:10:41.799Z,2.6
2022-10-18T13:15:41.768Z,2.74
2022-10-18T13:20:41.768Z,3.21
2022-10-18T13:25:41.767Z,3.16
2022-10-18T13:30:41.795Z,3.39
2022-10-18T13:35:41.809Z,3.18
2022-10-18T13:40:41.780Z,3.29
2022-10-18T13:45:41.823Z,3.44
2022-10-18T13:50:41.789Z,3.43
2022-10-18T13:55:41.787Z,3.29
2022-10-18T14:00:44.793Z,3.4
2022-10-18T14:05:41.801Z,3.39
2022-10-18T14:10:50.404Z,2.86
2022-10-18T14:15:41.801Z,3.38
2022-10-18T14:20:49.773Z,3.08
2022-10-18T14:25:41.820Z,2.43
2022-10-18T14:30:41.811Z,2.46
2022-10-18T14:35:41.899Z,2.65
2022-10-18T14:40:41.810Z,2.72
2022-10-18T14:45:41.825Z,3.43
2022-10-18T14:50:41.852Z,4.15
2022-10-18T14:55:41.824Z,3.55
2022-10-18T15:00:42.877Z,3.59
2022-10-18T15:05:41.828Z,3.94
2022-10-18T15:10:41.830Z,3.83
2022-10-18T15:15:41.827Z,3.93
2022-10-18T15:20:41.836Z,3.87
2022-10-18T15:25:41.863Z,4.25
2022-10-18T15:30:41.838Z,4.53
2022-10-18T15:35:41.876Z,4.96
2022-10-18T15:40:41.851Z,4.92
2022-10-18T15:45:41.894Z,5.43
2022-10-18T15:50:41.850Z,5.48
2022-10-18T15:55:41.890Z,5.95
2022-10-18T16:00:41.858Z,6.18
2022-10-18T16:05:41.859Z,6.56
2022-10-18T16:10:41.893Z,7.25
2022-10-18T16:15:41.864Z,7.38
2022-10-18T16:20:41.869Z,7.35
2022-10-18T16:25:41.866Z,7.24
2022-10-18T16:30:41.905Z,7.1
2022-10-18T16:35:41.944Z,7.73
2022-10-18T16:40:41.880Z,11.63
2022-10-18T16:45:41.881Z,9.4
2022-10-18T16:50:41.879Z,9.33
2022-10-18T16:55:41.914Z,14.49
2022-10-18T17:05:41.888Z,18.45
2022-10-18T17:10:41.933Z,18.56
2022-10-18T17:15:41.895Z,15.48
2022-10-18T17:20:41.891Z,12.79
2022-10-18T17:25:46.195Z,12.73
2022-10-18T17:30:41.902Z,15.63
2022-10-18T17:35:41.904Z,14.24
2022-10-18T17:40:41.903Z,12.26
2022-10-18T17:45:41.939Z,12.26
2022-10-18T17:50:41.907Z,12.16
2022-10-18T17:55:41.947Z,9.36
2022-10-18T18:00:41.907Z,9.44
2022-10-18T18:05:41.919Z,9.87
2022-10-18T18:10:41.946Z,9.01
2022-10-18T18:15:41.941Z,10.41
2022-10-18T18:20:41.958Z,9.15
2022-10-18T18:25:41.961Z,7.5
2022-10-18T18:30:41.966Z,7.01
2022-10-18T18:35:41.938Z,6.35
2022-10-18T18:40:41.971Z,6.53
2022-10-18T18:45:41.936Z,5.59
2022-10-18T18:50:41.942Z,6.76
2022-10-18T18:55:41.933Z,5.99
2022-10-18T19:00:43.613Z,6.1
2022-10-18T19:05:41.971Z,6.56
2022-10-18T19:10:41.951Z,6.74
2022-10-18T19:15:41.950Z,6.48
2022-10-18T19:20:41.977Z,6.38
2022-10-18T19:25:41.994Z,6.24
2022-10-18T19:30:42.741Z,6.61
2022-10-18T19:35:41.984Z,6.68
2022-10-18T19:40:41.962Z,6.29
2022-10-18T19:45:41.961Z,6.68
2022-10-18T19:50:41.985Z,6.3
2022-10-18T19:55:42.013Z,6.35
2022-10-18T20:00:42.009Z,6.29
2022-10-18T20:05:42.003Z,6.48
2022-10-18T20:10:41.983Z,6.47
2022-10-18T20:15:41.978Z,6.47
2022-10-18T20:20:43.429Z,6.26
2022-10-18T20:25:42.020Z,5.64
2022-10-18T20:30:42.026Z,5.84
2022-10-18T20:35:42.068Z,5.64
2022-10-18T20:40:42.028Z,5.87
2022-10-18T20:45:41.996Z,5.82
2022-10-18T20:50:42.005Z,6.06
2022-10-18T20:55:42.004Z,6.04
2022-10-18T21:00:41.997Z,6.12
2022-10-18T21:05:42.004Z,6
2022-10-18T21:10:42.042Z,6.03
2022-10-18T21:15:42.072Z,6.24
2022-10-18T21:20:42.054Z,6.29
2022-10-18T21:25:42.043Z,6.69
2022-10-18T21:30:42.035Z,7
2022-10-18T21:35:42.015Z,6.66
2022-10-18T21:40:42.019Z,6.75
2022-10-18T21:45:42.023Z,6.9
2022-10-18T21:50:42.028Z,7.27
2022-10-18T21:55:42.028Z,7.84
2022-10-18T22:00:42.164Z,8.17
2022-10-18T22:05:42.083Z,8.26
2022-10-18T22:10:42.062Z,8.32
2022-10-18T22:15:42.042Z,8.07
2022-10-18T22:20:42.075Z,8.72
2022-10-18T22:25:42.040Z,8.47
2022-10-18T22:30:42.061Z,8.32
2022-10-18T22:35:42.063Z,4.9
2022-10-18T22:40:42.064Z,3.99
2022-10-18T22:45:42.077Z,3.25
2022-10-18T22:50:42.077Z,2.97
2022-10-18T22:55:42.053Z,3
2022-10-18T23:00:42.075Z,2.23
2022-10-18T23:05:42.076Z,2.1
2022-10-18T23:10:42.073Z,2
2022-10-18T23:15:42.061Z,2
2022-10-18T23:20:42.090Z,1.97
2022-10-18T23:25:42.104Z,1.91
2022-10-18T23:30:42.100Z,1.74
2022-10-18T23:35:42.102Z,1.69
2022-10-18T23:40:42.107Z,1.86
2022-10-18T23:45:42.146Z,1.71
2022-10-18T23:50:42.126Z,1.48
2022-10-18T23:55:42.120Z,1.39
